Date,TemperatureHighF,TemperatureAvgF,TemperatureLowF,DewpointHighF,DewpointAvgF,DewpointLowF,HumidityHigh,HumidityAvg,HumidityLow,PressureMaxIn,PressureMinIn,WindSpeedMaxMPH,WindSpeedAvgMPH,GustSpeedMaxMPH,PrecipitationSumIn
2013-7-1,78,73,70,74,71,69,98,95,86,30.08,29.92,11,5,20,0.01
2013-7-2,79,73,72,74,72,70,97,94,83,30.20,30.07,9,6,17,0.02
2013-7-3,77,74,71,74,72,70,97,94,89,30.25,30.18,7,4,15,0.00
2013-7-4,83,75,71,75,72,70,98,91,78,30.25,30.17,9,6,19,0.00
2013-7-5,83,76,71,75,72,69,95,88,77,30.20,30.10,9,6,20,0.00
2013-7-6,77,74,72,73,72,70,95,93,87,30.13,30.10,9,6,19,0.00
2013-7-17,89,80,75,76,74,71,95,83,59,30.16,30.04,8,3,16,0.00
2013-7-18,96,84,76,78,76,74,93,78,55,30.03,29.95,5,3,15,0.00
2013-7-19,87,81,76,79,76,74,95,86,77,29.94,29.79,8,6,20,0.00
2013-7-20,84,79,74,77,74,71,94,86,74,29.83,29.71,8,5,21,0.00
2013-7-21,83,76,72,72,69,65,95,80,58,29.95,29.82,8,3,16,0.00
2013-7-22,80,75,73,76,73,72,97,94,80,29.95,29.76,8,4,17,0.02
2013-7-23,84,77,70,77,74,68,98,90,76,29.75,29.55,9,5,21,0.83
2013-7-24,88,78,71,76,70,61,97,78,57,29.87,29.57,7,3,17,0.00
2013-7-25,73,64,62,62,60,58,95,86,68,30.01,29.87,7,5,17,0.31
2013-7-26,77,66,61,69,64,60,97,92,73,30.04,29.91,8,4,19,0.64
2013-7-27,79,73,68,72,69,67,96,89,75,30.06,29.95,6,3,16,0.00
2013-7-28,80,73,69,72,70,68,97,89,72,29.99,29.92,5,2,11,0.00
2013-7-29,82,76,71,75,72,68,97,86,72,30.05,29.93,6,4,17,0.00
2013-7-30,83,74,64,66,61,57,86,67,42,30.12,30.05,6,4,17,0.00
2013-7-31,81,72,64,67,64,60,90,76,52,30.13,30.04,7,3,15,0.00